Flight Track Log - Related Links

Times and Time Zones

All times are in EDT time to prevent confusion due to time zone crossing. See the SKW5196 flight status page for this flight to view local times or setup timezone preferences in your user account.

Time Position Orientation Groundspeed Altitude Reporting Facility
EDT Latitude Longitude Course Direction KTS MPH feet Rate Location/Type
Fri 10:00:37 PM 41.9631 -87.9433 261° West 179 206 34,000  Level Chicago Center
Fri 10:01:38 PM 41.9331 -88.0067 238° Southwest 205 236 4,400 -13,619 Descending Chicago Center
Fri 10:02:43 PM 41.9000 -88.1000 245° Southwest 256 295 5,400 1,659 Climbing Chicago TRACON
Fri 10:03:41 PM 41.9369 -88.1728 304° West 273 314 7,800 2,300 Climbing Chicago Center
Fri 10:04:43 PM 41.9286 -88.2747 264° West 279 321 10,000 2,439 Climbing Chicago Center
Fri 10:05:44 PM 41.9153 -88.3867 261° West 300 345 12,800 2,508 Climbing Chicago Center
Fri 10:06:00 PM 41.8855 -88.7319 261° West  Level FlightAware Approximate
Fri 10:06:45 PM 41.9033 -88.4953 262° West 300 345 15,100  Level Chicago Center
Fri 10:07:47 PM 41.8897 -88.6328 262° West 307 353 16,900 1,512 Climbing Chicago Center
Fri 10:08:48 PM 41.8750 -88.7636 261° West 346 398 18,200 1,463 Climbing Chicago Center
Fri 10:09:50 PM 41.8633 -88.8989 263° West 365 420 19,900 1,610 Climbing Chicago Center
Fri 10:10:51 PM 41.8508 -89.0342 263° West 367 422 21,500 1,512 Climbing Chicago Center
Fri 10:11:53 PM 41.8378 -89.1761 263° West 383 441 23,000 1,463 Climbing Chicago Center
Fri 10:12:54 PM 41.8278 -89.3203 265° West 390 449 24,500 1,426 Climbing Chicago Center
Fri 10:13:55 PM 41.8219 -89.4647 267° West 390 449 25,900 1,561 Climbing Chicago Center
Fri 10:14:57 PM 41.8211 -89.6369 270° West 388 447 27,700 1,561 Climbing Chicago Center
Fri 10:15:58 PM 41.8189 -89.7789 269° West 387 445 29,100 1,475 Climbing Chicago Center
Fri 10:16:59 PM 41.8172 -89.9236 269° West 376 433 30,700 1,268 Climbing Chicago Center
Fri 10:18:01 PM 41.8164 -90.0583 270° West 368 423 31,700 878 Climbing Chicago Center
Fri 10:19:02 PM 41.8139 -90.1947 269° West 369 425 32,500 787 Climbing Chicago Center
Fri 10:20:03 PM 41.8111 -90.3333 269° West 373 429 33,300 738 Climbing Chicago Center
Fri 10:21:04 PM 41.8078 -90.4717 268° West 374 430 34,000 341 Climbing Chicago Center
Fri 10:22:06 PM 41.8050 -90.6164 269° West 386 444 34,000  Level Chicago Center
Fri 10:23:07 PM 41.7983 -90.7722 267° West 415 478 34,000  Level Chicago Center
Fri 10:24:09 PM 41.7939 -90.9581 268° West 416 479 34,000  Level Chicago Center
Fri 10:25:10 PM 41.7897 -91.1133 268° West 420 483 34,000  Level Chicago Center
Fri 10:26:11 PM 41.7850 -91.2703 268° West 422 486 34,000  Level Chicago Center
Fri 10:27:13 PM 41.7806 -91.4253 268° West 419 482 34,000  Level Chicago Center
Fri 10:28:14 PM 41.7767 -91.5828 268° West 423 487 34,000  Level Chicago Center
Fri 10:29:16 PM 41.7711 -91.7406 267° West 426 490 34,000  Level Chicago Center
Fri 10:30:17 PM 41.7653 -91.8994 267° West 428 493 34,000  Level Chicago Center
Fri 10:31:18 PM 41.7597 -92.0578 267° West 429 494 34,000  Level Chicago Center
Fri 10:32:20 PM 41.7525 -92.2469 267° West 428 493 34,000  Level Chicago Center
Fri 10:33:21 PM 41.7469 -92.4033 267° West 424 488 34,000  Level Chicago Center
Fri 10:34:22 PM 41.7397 -92.5603 267° West 425 489 34,000  Level Chicago Center
Fri 10:35:24 PM 41.7333 -92.7181 267° West 426 490 34,000  Level Chicago Center
Fri 10:36:25 PM 41.7261 -92.8842 267° West 427 491 34,000  Level Chicago Center
Fri 10:36:48 PM 41.7256 -92.9181 269° West 428 493 34,000  Level Minneapolis Center
Fri 10:37:49 PM 41.7169 -93.1069 267° West 429 494 34,000  Level Minneapolis Center
Fri 10:38:51 PM 41.7089 -93.2631 266° West 426 490 34,000  Level Minneapolis Center
Fri 10:39:52 PM 41.7019 -93.4211 267° West 428 493 34,000  Level Minneapolis Center
Fri 10:40:53 PM 41.6947 -93.5758 266° West 424 488 34,000  Level Minneapolis Center
Fri 10:41:55 PM 41.6847 -93.7700 266° West 438 504 34,000  Level Minneapolis Center
Fri 10:42:56 PM 41.6753 -93.9286 265° West 437 503 34,000  Level Minneapolis Center
Fri 10:43:57 PM 41.6653 -94.0908 265° West 438 504 34,000  Level Minneapolis Center
Fri 10:44:58 PM 41.6597 -94.2475 267° West 433 498 34,000  Level Minneapolis Center
Fri 10:46:00 PM 41.6511 -94.4075 266° West 434 499 34,000  Level Minneapolis Center
Fri 10:47:01 PM 41.6408 -94.5692 265° West 437 503 34,000  Level Minneapolis Center
Fri 10:48:02 PM 41.6322 -94.7317 266° West 440 506 34,000  Level Minneapolis Center
Fri 10:49:03 PM 41.6219 -94.8944 265° West 441 507 34,000  Level Minneapolis Center
Fri 10:50:05 PM 41.6128 -95.0558 266° West 436 502 34,000  Level Minneapolis Center
Fri 10:51:06 PM 41.6011 -95.2517 266° West 442 509 34,000  Level Minneapolis Center
Fri 10:52:07 PM 41.5908 -95.4147 265° West 443 510 34,000  Level Minneapolis Center
Fri 10:53:08 PM 41.5789 -95.5767 264° West 440 506 34,000  Level Minneapolis Center
Fri 10:54:10 PM 41.5683 -95.7525 265° West 443 510 34,000  Level Minneapolis Center
Fri 10:55:11 PM 41.5592 -95.9164 266° West 443 510 34,000  Level Minneapolis Center
Fri 10:56:12 PM 41.5478 -96.0483 263° West 444 511 34,000  Level Minneapolis Center
Fri 10:57:13 PM 41.5344 -96.2456 265° West 445 512 34,000  Level Minneapolis Center
Fri 10:58:15 PM 41.5197 -96.4178 264° West 444 511 34,000  Level Minneapolis Center
Fri 10:59:16 PM 41.5072 -96.5825 264° West 447 514 34,000  Level Minneapolis Center
Fri 11:00:29 PM 41.4950 -96.7456 264° West 445 512 34,000  Level Minneapolis Center
Fri 11:01:31 PM 41.4781 -96.9436 264° West 448 516 34,000  Level Minneapolis Center
Fri 11:02:32 PM 41.4656 -97.1100 264° West 452 520 34,000  Level Minneapolis Center
Fri 11:03:33 PM 41.4525 -97.2769 264° West 454 522 34,000  Level Minneapolis Center
Fri 11:04:34 PM 41.4383 -97.4436 264° West 454 522 34,000  Level Minneapolis Center
Fri 11:05:36 PM 41.4256 -97.6100 264° West 452 520 34,000  Level Minneapolis Center
Fri 11:06:37 PM 41.4103 -97.7783 263° West 457 526 34,000  Level Minneapolis Center
Fri 11:07:51 PM 41.3897 -98.0150 263° West 460 529 34,000  Level Minneapolis Center
Fri 11:08:52 PM 41.3753 -98.1781 263° West 460 529 34,000  Level Minneapolis Center
Fri 11:09:53 PM 41.3594 -98.3486 263° West 463 533 34,000  Level Minneapolis Center
Fri 11:10:54 PM 41.3431 -98.5264 263° West 466 536 34,000  Level Minneapolis Center
Fri 11:11:56 PM 41.3267 -98.6978 263° West 466 536 34,000  Level Minneapolis Center
Fri 11:13:09 PM 41.3092 -98.8689 262° West 467 537 34,000  Level Minneapolis Center
Fri 11:14:11 PM 41.2894 -99.0747 263° West 468 539 34,000  Level Minneapolis Center
Fri 11:15:12 PM 41.2725 -99.2653 263° West 472 543 34,000  Level Minneapolis Center
Fri 11:16:13 PM 41.2550 -99.4369 262° West 471 542 34,000  Level Minneapolis Center
Fri 11:17:24 PM 41.2344 -99.6383 262° West 474 545 34,000  Level Denver Center
Fri 11:18:25 PM 41.2139 -99.8325 262° West 475 547 34,000  Level Denver Center
Fri 11:19:27 PM 41.1961 -99.9992 262° West 478 550 34,000  Level Denver Center
Fri 11:20:28 PM 41.1756 -100.1931 262° West 478 550 34,000  Level Denver Center
Fri 11:21:30 PM 41.1572 -100.3603 262° West 480 552 34,000  Level Denver Center
Fri 11:22:31 PM 41.1397 -100.5258 262° West 478 550 34,000  Level Denver Center
Fri 11:23:32 PM 41.1181 -100.7194 262° West 480 552 34,000  Level Denver Center
Fri 11:24:34 PM 41.0983 -100.8850 261° West 481 554 34,000  Level Denver Center
Fri 11:25:35 PM 41.0767 -101.0786 262° West 480 552 34,000  Level Denver Center
Fri 11:26:37 PM 41.0575 -101.2456 261° West 481 554 34,000  Level Denver Center
Fri 11:27:38 PM 41.0339 -101.4400 261° West 481 554 34,000  Level Denver Center
Fri 11:28:39 PM 41.0139 -101.6072 261° West 481 554 34,000  Level Denver Center
Fri 11:29:41 PM 40.9889 -101.8036 260° West 485 558 34,000  Level Denver Center
Fri 11:30:42 PM 40.9689 -101.9731 261° West 488 562 34,000  Level Denver Center
Fri 11:31:43 PM 40.9475 -102.1411 260° West 485 558 34,000  Level Denver Center
Fri 11:32:45 PM 40.9233 -102.3397 261° West 491 565 34,000  Level Denver Center
Fri 11:33:46 PM 40.9014 -102.5083 260° West 488 562 34,000  Level Denver Center
Fri 11:34:48 PM 40.8758 -102.7053 260° West 488 562 34,000  Level Denver Center
Fri 11:35:49 PM 40.8525 -102.8739 260° West 489 563 34,000  Level Denver Center
Fri 11:36:50 PM 40.8294 -103.0542 260° West 488 562 34,000  Level Denver Center
Fri 11:37:52 PM 40.8056 -103.2331 260° West 491 565 34,000  Level Denver Center
Fri 11:38:53 PM 40.7819 -103.4125 260° West 493 567 34,000  Level Denver Center
Fri 11:39:54 PM 40.7564 -103.5911 259° West 494 568 34,000  Level Denver Center
Fri 11:40:55 PM 40.7308 -103.7689 259° West 491 565 34,000  Level Denver Center
Fri 11:41:57 PM 40.7061 -103.9481 260° West 494 568 34,000  Level Denver Center
Fri 11:42:58 PM 40.6803 -104.1297 259° West 504 580 34,000  Level Denver Center
Fri 11:43:59 PM 40.6544 -104.3078 259° West 494 568 34,000  Level Denver Center
Fri 11:45:00 PM 40.6244 -104.5156 259° West 493 567 34,000  Level Denver Center
Fri 11:46:02 PM 40.5981 -104.6917 259° West 489 563 34,000  Level Denver Center
Fri 11:47:03 PM 40.5714 -104.8686 259° West 490 564 34,000  Level Denver Center
Fri 11:48:04 PM 40.5453 -105.0450 259° West 490 564 34,000  Level Denver Center
Fri 11:49:05 PM 40.5183 -105.2164 258° West 480 552 34,000  Level Denver Center
Fri 11:50:07 PM 40.4908 -105.3931 258° West 487 560 34,000  Level Denver Center
Fri 11:51:08 PM 40.4631 -105.5689 258° West 489 563 34,000  Level Denver Center
Fri 11:52:09 PM 40.4353 -105.7467 258° West 492 566 34,000  Level Denver Center
Fri 11:53:10 PM 40.4078 -105.9214 258° West 488 562 34,000  Level Denver Center
Fri 11:54:12 PM 40.3792 -106.0975 258° West 490 564 34,000  Level Denver Center
Fri 11:55:13 PM 40.3506 -106.2744 258° West 489 563 34,000  Level Denver Center
Fri 11:56:14 PM 40.3192 -106.4678 258° West 487 560 34,000  Level Denver Center
Fri 11:57:15 PM 40.2944 -106.6164 258° West 487 560 34,000  Level Denver Center
Fri 11:58:16 PM 40.2656 -106.7886 258° West 486 559 34,000  Level Denver Center
Fri 11:59:18 PM 40.2311 -106.9903 257° West 485 558 34,000  Level Denver Center
Sat 12:00:19 AM 40.2025 -107.1542 257° West 484 557 34,000  Level Denver Center
Sat 12:01:20 AM 40.1708 -107.3469 258° West 485 558 34,000  Level Denver Center
Sat 12:02:21 AM 40.1411 -107.5117 257° West 487 560 34,000  Level Denver Center
Sat 12:03:35 AM 40.1033 -107.7306 257° West 486 559 34,000  Level Denver Center
Sat 12:04:36 AM 40.0744 -107.8939 257° West 484 557 34,000  Level Denver Center
Sat 12:05:37 AM 40.0725 -108.0594 269° West 484 557 34,000  Level Denver Center
Sat 12:06:38 AM 40.0822 -108.2514 274° West 477 549 34,000  Level Denver Center
Sat 12:07:39 AM 40.0897 -108.4164 273° West 477 549 34,000  Level Denver Center
Sat 12:08:41 AM 40.0975 -108.6089 273° West 479 551 34,000  Level Denver Center
Sat 12:09:42 AM 40.1044 -108.7717 273° West 474 545 34,000  Level Denver Center
Sat 12:10:43 AM 40.1106 -108.9356 273° West 474 545 34,000  Level Denver Center
Sat 12:11:06 AM 40.1136 -109.0178 273° West 473 544 34,000  Level Salt Lake Center
Sat 12:11:44 AM 40.1175 -109.1253 273° West 472 543 34,000 -121 Level Denver Center
Sat 12:12:45 AM 40.1236 -109.2881 273° West 471 542 33,800 -500 Descending Denver Center
Sat 12:13:08 AM 40.1253 -109.3708 272° West 473 544 33,300 -1,071 Descending Salt Lake Center
Sat 12:14:09 AM 40.1308 -109.5356 273° West 476 548 32,300 -934 Descending Salt Lake Center
Sat 12:15:10 AM 40.1361 -109.7008 272° West 477 549 31,400 -1,024 Descending Salt Lake Center
Sat 12:16:12 AM 40.1433 -109.8939 273° West 476 548 30,200 -683 Descending Salt Lake Center
Sat 12:17:13 AM 40.1475 -110.0592 272° West 477 549 30,000 -98 Descending Salt Lake Center
Sat 12:18:14 AM 40.1500 -110.2489 271° West 469 540 30,000  Level Salt Lake Center
Sat 12:19:15 AM 40.1464 -110.4086 268° West 461 531 30,000  Level Salt Lake Center
Sat 12:20:16 AM 40.1464 -110.5608 270° West 444 511 30,000  Level Salt Lake Center
Sat 12:21:17 AM 40.1433 -110.7417 269° West 447 514 30,000  Level Salt Lake Center
Sat 12:22:19 AM 40.1425 -110.8994 270° West 452 520 30,000 -1,268 Level Salt Lake Center
Sat 12:23:20 AM 40.1392 -111.0781 269° West 443 510 27,400 -2,607 Descending Salt Lake Center
Sat 12:24:21 AM 40.1375 -111.2258 269° West 414 476 24,700 -2,557 Descending Salt Lake Center
Sat 12:25:22 AM 40.1353 -111.3694 269° West 397 457 22,200 -2,537 Descending Salt Lake Center
Sat 12:26:24 AM 40.1325 -111.5053 269° West 377 434 19,500 -2,286 Descending Salt Lake Center
Sat 12:26:46 AM 40.1339 -111.5661 272° West 366 421 19,000 -492 Descending Salt Lake Center
Sat 12:27:25 AM 40.1619 -111.6303 300° West 363 418 19,000 -60 Level Salt Lake Center
Sat 12:28:26 AM 40.2092 -111.7475 298° West 364 419 18,900 -738 Descending Salt Lake Center
Sat 12:29:27 AM 40.2933 -111.8153 328° Northwest 353 406 17,500 -1,623 Descending Salt Lake Center
Sat 12:30:28 AM 40.3750 -111.8775 330° Northwest 338 389 15,600 -1,869 Descending Salt Lake Center
Sat 12:31:29 AM 40.4517 -111.9364 330° Northwest 320 368 13,700 -1,854 Descending Salt Lake Center
Sat 12:32:31 AM 40.5281 -111.9956 330° Northwest 319 367 11,800 -1,317 Descending Salt Lake Center
Sat 12:33:32 AM 40.6064 -112.0558 330° Northwest 324 373 11,000 -393 Descending Salt Lake Center
Sat 12:34:33 AM 40.6958 -112.0842 346° North 337 388 11,000  Level Salt Lake Center
Sat 12:35:34 AM 40.7978 -112.0986 354° North 289 333 11,000 -344 Level Salt Lake Center
Sat 12:36:35 AM 40.8619 -112.1039 356° North 227 261 10,300 -1,339 Descending Salt Lake Center
Sat 12:37:35 AM 40.9181 -112.0975 North 222 255 8,300 -1,820 Descending Salt Lake Center
Sat 12:38:37 AM 40.9283 -112.0206 80° East 217 250 6,600 -1,065 Descending Salt Lake Center
Sat 12:39:39 AM 40.8928 -111.9694 133° Southeast 194 223 6,100 -683 Descending Salt Lake Center
Sat 12:40:40 AM 40.8469 -111.9622 173° South 159 183 5,200 -787 Descending Salt Lake Center
Sat 12:41:41 AM 40.8103 -111.9628 181° South 135 155 4,500 -689 Descending Salt Lake Center
Sat 12:43:00 AM 40.7833 -111.9667 194° South  Level FlightAware Approximate

Login

Don't have an account? Register now (free) for customized features, flight alerts, and more!